createdAt,value
2022-11-03T00:01:40.521Z,9.35
2022-11-03T00:04:09.398Z,9.37
2022-11-03T00:06:37.165Z,8.55
2022-11-03T00:09:06.930Z,9.02
2022-11-03T00:11:34.906Z,9.46
2022-11-03T00:14:01.980Z,9.47
2022-11-03T00:16:29.052Z,7.97
2022-11-03T00:18:55.716Z,9.50
2022-11-03T00:21:23.262Z,9.54
2022-11-03T00:23:49.963Z,9.38
2022-11-03T00:26:22.090Z,9.51
2022-11-03T00:28:50.761Z,9.18
2022-11-03T00:31:24.196Z,7.28
2022-11-03T00:33:51.379Z,9.33
2022-11-03T00:36:21.370Z,9.04
2022-11-03T00:38:48.302Z,8.76
2022-11-03T00:41:15.469Z,8.56
2022-11-03T00:43:42.781Z,9.25
2022-11-03T00:46:10.419Z,9.43
2022-11-03T00:48:37.962Z,8.89
2022-11-03T00:51:16.276Z,8.83
2022-11-03T00:53:44.100Z,9.31
2022-11-03T00:56:16.134Z,9.51
2022-11-03T00:58:43.670Z,8.77
2022-11-03T01:01:16.230Z,9.50
2022-11-03T01:04:04.277Z,9.10
2022-11-03T01:06:51.273Z,9.28
2022-11-03T01:09:18.643Z,9.27
2022-11-03T01:11:55.687Z,8.54
2022-11-03T01:14:22.921Z,9.07
2022-11-03T01:16:50.010Z,9.10
2022-11-03T01:19:16.751Z,8.93
2022-11-03T01:21:44.386Z,9.24
2022-11-03T01:24:11.038Z,9.25
2022-11-03T01:26:37.735Z,9.20
2022-11-03T01:29:05.630Z,9.11
2022-11-03T01:31:32.390Z,9.13
2022-11-03T01:33:59.059Z,9.16
2022-11-03T01:36:26.361Z,9.06
2022-11-03T01:38:56.309Z,9.09
2022-11-03T01:41:25.729Z,8.10
2022-11-03T01:44:12.414Z,9.57
2022-11-03T01:47:01.462Z,8.99
2022-11-03T01:49:46.973Z,9.15
2022-11-03T01:52:34.051Z,9.52
2022-11-03T01:55:05.800Z,9.44
2022-11-03T01:57:39.921Z,9.01
2022-11-03T02:00:07.378Z,9.39
2022-11-03T02:02:41.022Z,9.48
2022-11-03T02:05:09.961Z,9.16
2022-11-03T02:07:50.924Z,8.72
2022-11-03T02:10:18.602Z,9.55
2022-11-03T02:12:45.390Z,9.43
2022-11-03T02:15:14.653Z,9.57
2022-11-03T02:17:43.441Z,9.60
2022-11-03T02:20:13.636Z,9.58
2022-11-03T02:22:59.138Z,9.55
2022-11-03T02:25:48.521Z,9.57
2022-11-03T02:28:18.702Z,8.81
2022-11-03T02:31:11.859Z,9.64
2022-11-03T02:33:48.363Z,9.58
2022-11-03T02:36:25.400Z,9.46
2022-11-03T02:39:00.623Z,9.41
2022-11-03T02:41:30.286Z,9.53
2022-11-03T02:43:58.342Z,9.62
2022-11-03T02:46:26.643Z,9.33
2022-11-03T02:48:53.263Z,8.71
2022-11-03T02:51:19.913Z,9.40
2022-11-03T02:53:59.930Z,9.51
2022-11-03T02:56:29.144Z,9.38
2022-11-03T02:59:07.495Z,9.57
2022-11-03T03:01:47.355Z,8.64
2022-11-03T03:04:23.697Z,9.57
2022-11-03T03:07:01.778Z,9.53
2022-11-03T03:09:35.534Z,9.57
2022-11-03T03:12:06.276Z,9.55
2022-11-03T03:14:37.651Z,9.34
2022-11-03T03:17:19.734Z,9.51
2022-11-03T03:19:59.202Z,9.57
2022-11-03T03:22:42.329Z,8.89
2022-11-03T03:25:15.731Z,8.06
2022-11-03T03:27:48.379Z,9.63
2022-11-03T03:30:16.121Z,7.38
2022-11-03T03:32:50.997Z,9.37
2022-11-03T03:35:23.128Z,8.77
2022-11-03T03:37:53.639Z,9.46
2022-11-03T03:40:29.277Z,8.74
2022-11-03T03:42:57.548Z,9.56
2022-11-03T03:45:26.643Z,8.93
2022-11-03T03:47:57.498Z,9.20
2022-11-03T03:50:27.004Z,9.60
2022-11-03T03:53:05.635Z,9.42
2022-11-03T03:55:37.161Z,9.66
2022-11-03T03:58:05.314Z,9.62
2022-11-03T04:00:32.921Z,9.73
2022-11-03T04:02:59.951Z,9.14
2022-11-03T04:05:26.931Z,8.96
2022-11-03T04:07:53.725Z,9.51
2022-11-03T04:10:22.230Z,9.75
2022-11-03T04:13:07.986Z,9.75
2022-11-03T04:15:52.775Z,9.31
2022-11-03T04:18:39.850Z,9.72
2022-11-03T04:21:27.353Z,8.35
2022-11-03T04:23:54.339Z,9.35
2022-11-03T04:26:24.801Z,9.76
2022-11-03T04:28:53.291Z,9.31
2022-11-03T04:31:21.065Z,9.70
2022-11-03T04:33:49.096Z,9.32
2022-11-03T04:36:21.435Z,7.83
2022-11-03T04:38:49.373Z,9.25
2022-11-03T04:41:33.145Z,8.97
2022-11-03T04:43:59.739Z,9.38
2022-11-03T04:46:29.052Z,9.10
2022-11-03T04:49:02.039Z,8.86
2022-11-03T04:51:33.191Z,9.38
2022-11-03T04:54:04.051Z,9.36
2022-11-03T04:56:30.767Z,8.21
2022-11-03T04:58:58.282Z,8.61
2022-11-03T05:01:25.155Z,7.91
2022-11-03T05:03:54.409Z,9.40
2022-11-03T05:06:23.749Z,9.47
2022-11-03T05:08:55.041Z,7.82
2022-11-03T05:11:34.395Z,9.36
2022-11-03T05:14:04.501Z,8.80
2022-11-03T05:16:31.629Z,9.30
2022-11-03T05:18:58.690Z,8.82
2022-11-03T05:21:27.034Z,9.35
2022-11-03T05:24:02.886Z,8.80
2022-11-03T05:26:35.075Z,9.33
2022-11-03T05:29:18.415Z,9.36
2022-11-03T05:31:47.751Z,8.93
2022-11-03T05:34:43.028Z,9.44
2022-11-03T05:37:26.740Z,9.44
2022-11-03T05:39:57.542Z,8.91
2022-11-03T05:42:45.383Z,9.50
2022-11-03T05:45:24.560Z,8.67
2022-11-03T05:47:55.345Z,8.13
2022-11-03T05:50:28.048Z,8.75
2022-11-03T05:53:10.191Z,9.46
2022-11-03T05:55:37.294Z,9.69
2022-11-03T05:58:27.507Z,9.63
2022-11-03T06:00:54.618Z,9.56
2022-11-03T06:03:24.949Z,9.46
2022-11-03T06:05:53.443Z,9.09
2022-11-03T06:10:58.392Z,9.25
2022-11-03T06:13:26.498Z,9.08
2022-11-03T06:15:58.790Z,9.33
2022-11-03T06:18:31.058Z,9.38
2022-11-03T06:21:12.545Z,9.47
2022-11-03T06:23:41.172Z,8.74
2022-11-03T06:26:24.129Z,8.59
2022-11-03T06:28:51.662Z,8.56
2022-11-03T06:31:23.147Z,9.11
2022-11-03T06:33:52.217Z,9.69
2022-11-03T06:36:21.481Z,9.73
2022-11-03T06:39:04.031Z,9.58
2022-11-03T06:41:32.933Z,9.28
2022-11-03T06:44:02.379Z,9.80
2022-11-03T06:46:30.701Z,9.26
2022-11-03T06:49:04.226Z,9.83
2022-11-03T06:51:31.163Z,9.13
2022-11-03T06:54:01.634Z,8.23
2022-11-03T06:56:31.541Z,9.84
2022-11-03T06:58:58.543Z,9.85
2022-11-03T07:01:29.733Z,9.88
2022-11-03T07:04:01.235Z,8.20
2022-11-03T07:06:37.539Z,9.91
2022-11-03T07:09:07.372Z,9.13
2022-11-03T07:11:47.679Z,9.97
2022-11-03T07:14:20.131Z,10.05
2022-11-03T07:16:53.291Z,9.21
2022-11-03T07:19:24.893Z,9.65
2022-11-03T07:21:54.971Z,10.08
2022-11-03T07:24:34.733Z,10.12
2022-11-03T07:27:17.069Z,10.18
2022-11-03T07:29:45.169Z,10.32
2022-11-03T07:32:18.579Z,10.38
2022-11-03T07:34:47.278Z,10.38
2022-11-03T07:37:21.435Z,10.35
2022-11-03T07:39:50.799Z,10.22
2022-11-03T07:42:22.650Z,10.29
2022-11-03T07:44:52.981Z,9.94
2022-11-03T07:47:22.070Z,10.14
2022-11-03T07:49:48.822Z,9.54
2022-11-03T07:52:19.528Z,10.06
2022-11-03T07:54:47.314Z,10.71
2022-11-03T07:57:25.080Z,10.98
2022-11-03T08:00:10.841Z,11.07
2022-11-03T08:02:55.376Z,11.14
2022-11-03T08:05:22.390Z,11.17
2022-11-03T08:07:49.123Z,11.18
2022-11-03T08:10:15.984Z,10.79
2022-11-03T08:12:42.638Z,10.73
2022-11-03T08:15:09.819Z,11.05
2022-11-03T08:17:36.435Z,11.15
2022-11-03T08:20:03.387Z,11.08
2022-11-03T08:22:32.793Z,10.16
2022-11-03T08:24:59.507Z,11.01
2022-11-03T08:27:27.648Z,10.99
2022-11-03T08:29:54.338Z,10.30
2022-11-03T08:32:21.044Z,10.42
2022-11-03T08:34:47.766Z,11.10
2022-11-03T08:37:14.456Z,11.05
2022-11-03T08:39:41.630Z,10.13
2022-11-03T08:42:08.198Z,10.64
2022-11-03T08:44:34.806Z,11.12
2022-11-03T08:47:01.383Z,10.78
2022-11-03T08:49:28.301Z,11.29
2022-11-03T08:51:54.893Z,10.89
2022-11-03T08:54:21.531Z,11.33
2022-11-03T08:56:48.919Z,10.59
2022-11-03T08:59:18.214Z,11.39
2022-11-03T09:01:45.097Z,11.37
2022-11-03T09:04:12.037Z,11.34
2022-11-03T09:06:38.696Z,11.39
2022-11-03T09:11:52.009Z,11.56
2022-11-03T09:14:18.698Z,11.61
2022-11-03T09:16:45.838Z,11.50
2022-11-03T09:19:12.544Z,11.73
2022-11-03T09:21:39.229Z,11.70
2022-11-03T09:24:06.260Z,11.86
2022-11-03T09:26:32.924Z,10.34
2022-11-03T09:28:59.531Z,11.74
2022-11-03T09:31:28.499Z,11.60
2022-11-03T09:33:55.583Z,11.55
2022-11-03T09:36:22.245Z,11.56
2022-11-03T09:38:48.947Z,11.36
2022-11-03T09:41:26.451Z,11.57
2022-11-03T09:43:57.309Z,11.09
2022-11-03T09:46:25.551Z,10.96
2022-11-03T09:48:54.061Z,8.16
2022-11-03T09:51:22.478Z,11.47
2022-11-03T09:53:50.015Z,11.41
2022-11-03T09:56:19.861Z,11.43
2022-11-03T09:58:51.275Z,11.40
2022-11-03T10:01:21.015Z,11.24
2022-11-03T10:03:48.440Z,11.45
2022-11-03T10:06:24.259Z,11.50
2022-11-03T10:08:51.159Z,11.11
2022-11-03T10:11:18.111Z,11.65
2022-11-03T10:13:49.372Z,11.07
2022-11-03T10:16:20.198Z,11.13
2022-11-03T10:18:47.229Z,11.66
2022-11-03T10:21:23.928Z,11.65
2022-11-03T10:23:50.893Z,11.70
2022-11-03T10:26:19.691Z,11.71
2022-11-03T10:29:04.481Z,11.15
2022-11-03T10:31:34.832Z,11.91
2022-11-03T10:34:01.581Z,12.13
2022-11-03T10:36:30.189Z,12.27
2022-11-03T10:38:57.340Z,12.40
2022-11-03T10:41:31.798Z,12.15
2022-11-03T10:44:18.571Z,12.23
2022-11-03T10:47:01.344Z,12.36
2022-11-03T10:49:34.689Z,11.63
2022-11-03T10:52:23.970Z,12.47
2022-11-03T10:54:52.826Z,12.54
2022-11-03T10:57:20.434Z,12.13
2022-11-03T10:59:49.636Z,11.74
2022-11-03T11:02:22.039Z,12.03
2022-11-03T11:04:53.187Z,11.92
2022-11-03T11:07:25.845Z,11.88
2022-11-03T11:09:54.356Z,11.58
2022-11-03T11:12:25.466Z,11.45
2022-11-03T11:14:57.500Z,12.08
2022-11-03T11:17:45.076Z,12.21
2022-11-03T11:20:19.594Z,12.15
2022-11-03T11:22:46.807Z,10.72
2022-11-03T11:25:13.973Z,12.03
2022-11-03T11:27:43.710Z,12.04
2022-11-03T11:30:30.367Z,11.84
2022-11-03T11:33:01.185Z,12.07
2022-11-03T11:35:28.061Z,12.07
2022-11-03T11:37:54.994Z,11.62
2022-11-03T11:40:24.887Z,12.09
2022-11-03T11:43:07.403Z,12.10
2022-11-03T11:46:11.964Z,11.84
2022-11-03T11:48:39.087Z,11.79
2022-11-03T11:51:11.692Z,11.31
2022-11-03T11:53:41.256Z,11.84
2022-11-03T11:56:13.972Z,11.06
2022-11-03T11:58:56.345Z,11.57
2022-11-03T12:01:29.743Z,11.81
2022-11-03T12:04:08.600Z,11.93
2022-11-03T12:06:37.973Z,12.03
2022-11-03T12:09:15.786Z,12.14
2022-11-03T12:11:56.800Z,11.97
2022-11-03T12:14:35.637Z,11.62
2022-11-03T12:17:17.450Z,11.72
2022-11-03T12:19:52.564Z,11.52
2022-11-03T12:22:26.033Z,11.40
2022-11-03T12:24:53.736Z,11.44
2022-11-03T12:27:41.761Z,11.39
2022-11-03T12:30:17.493Z,10.22
2022-11-03T12:32:44.626Z,11.65
2022-11-03T12:35:13.587Z,10.39
2022-11-03T12:37:41.148Z,11.84
2022-11-03T12:40:08.597Z,11.36
2022-11-03T12:42:35.470Z,12.03
2022-11-03T12:45:02.291Z,12.21
2022-11-03T12:47:29.158Z,12.28
2022-11-03T12:49:55.911Z,12.36
2022-11-03T12:52:22.690Z,12.28
2022-11-03T12:54:49.434Z,12.38
2022-11-03T12:57:16.380Z,12.28
2022-11-03T12:59:43.106Z,11.62
2022-11-03T13:02:11.340Z,12.23
2022-11-03T13:04:38.804Z,12.28
2022-11-03T13:07:05.452Z,12.31
2022-11-03T13:09:32.205Z,12.27
2022-11-03T13:12:17.660Z,12.23
2022-11-03T13:14:47.795Z,12.11
2022-11-03T13:17:16.102Z,11.92
2022-11-03T13:19:42.861Z,11.34
2022-11-03T13:22:09.555Z,10.96
2022-11-03T13:24:36.386Z,11.18
2022-11-03T13:27:03.609Z,11.46
2022-11-03T13:29:35.157Z,11.77
2022-11-03T13:32:03.729Z,11.81
2022-11-03T13:34:31.452Z,11.84
2022-11-03T13:36:58.841Z,10.92
2022-11-03T13:39:25.713Z,11.38
2022-11-03T13:41:52.491Z,10.96
2022-11-03T13:44:19.249Z,11.71
2022-11-03T13:46:46.148Z,11.58
2022-11-03T13:51:59.647Z,11.45
2022-11-03T14:00:03.638Z,7.90
2022-11-03T14:05:25.898Z,10.88
2022-11-03T14:07:52.883Z,10.85
2022-11-03T14:10:19.761Z,10.81
2022-11-03T14:12:46.419Z,10.29
2022-11-03T14:15:13.248Z,10.80
2022-11-03T14:17:40.555Z,10.11
2022-11-03T14:20:09.792Z,10.49
2022-11-03T14:22:36.651Z,10.60
2022-11-03T14:25:03.980Z,10.14
2022-11-03T14:27:30.759Z,9.30
2022-11-03T14:29:57.558Z,10.53
2022-11-03T14:32:24.598Z,10.48
2022-11-03T14:34:51.455Z,10.42
2022-11-03T14:37:18.274Z,10.40
2022-11-03T14:39:46.227Z,10.07
2022-11-03T14:42:17.183Z,10.28
2022-11-03T14:44:47.994Z,10.18
2022-11-03T14:47:18.007Z,10.30
2022-11-03T14:49:46.454Z,10.31
2022-11-03T14:52:15.016Z,10.33
2022-11-03T14:54:42.023Z,10.37
2022-11-03T14:57:09.912Z,9.79
2022-11-03T14:59:36.550Z,10.12
2022-11-03T15:02:06.891Z,10.13
2022-11-03T15:04:33.862Z,10.34
2022-11-03T15:07:00.788Z,10.35
2022-11-03T15:09:30.453Z,9.92
2022-11-03T15:11:57.291Z,10.30
2022-11-03T15:14:24.326Z,9.98
2022-11-03T15:16:50.913Z,9.68
2022-11-03T15:19:17.583Z,10.29
2022-11-03T15:21:44.330Z,9.95
2022-11-03T15:27:03.437Z,9.94
2022-11-03T15:29:30.412Z,9.70
2022-11-03T15:31:59.809Z,9.85
2022-11-03T15:34:26.706Z,8.99
2022-11-03T15:36:53.397Z,9.33
2022-11-03T15:39:20.109Z,9.30
2022-11-03T15:41:46.773Z,9.86
2022-11-03T15:44:13.546Z,9.84
2022-11-03T15:46:40.164Z,9.86
2022-11-03T15:49:06.879Z,9.88
2022-11-03T15:51:33.664Z,9.91
2022-11-03T15:54:03.323Z,9.37
2022-11-03T15:56:31.448Z,9.50
2022-11-03T15:58:58.119Z,10.26
2022-11-03T16:01:24.851Z,10.37
2022-11-03T16:03:55.122Z,10.29
2022-11-03T16:06:40.154Z,10.27
2022-11-03T16:09:11.238Z,10.45
2022-11-03T16:11:43.224Z,10.45
2022-11-03T16:14:30.887Z,10.25
2022-11-03T16:17:01.224Z,10.41
2022-11-03T16:19:28.404Z,10.39
2022-11-03T16:21:57.513Z,9.95
2022-11-03T16:24:29.612Z,9.87
2022-11-03T16:27:05.926Z,9.90
2022-11-03T16:29:32.696Z,10.19
2022-11-03T16:31:59.606Z,10.22
2022-11-03T16:34:27.777Z,10.22
2022-11-03T16:36:54.533Z,9.13
2022-11-03T16:39:21.201Z,9.94
2022-11-03T16:41:48.003Z,9.28
2022-11-03T16:44:14.649Z,9.28
2022-11-03T16:46:43.475Z,9.93
2022-11-03T16:49:10.412Z,9.99
2022-11-03T16:51:37.174Z,9.76
2022-11-03T16:54:03.864Z,10.54
2022-11-03T16:56:33.604Z,9.72
2022-11-03T16:59:03.247Z,10.54
2022-11-03T17:01:30.255Z,10.53
2022-11-03T17:03:57.141Z,10.25
2022-11-03T17:06:24.195Z,10.39
2022-11-03T17:08:53.188Z,9.94
2022-11-03T17:11:36.208Z,10.27
2022-11-03T17:14:08.494Z,10.15
2022-11-03T17:16:35.264Z,10.14
2022-11-03T17:19:02.540Z,9.99
2022-11-03T17:21:32.433Z,9.24
2022-11-03T17:24:09.559Z,9.83
2022-11-03T17:26:51.382Z,9.76
2022-11-03T17:29:31.079Z,9.75
2022-11-03T17:31:58.221Z,9.82
2022-11-03T17:34:25.239Z,8.78
2022-11-03T17:37:08.258Z,9.54
2022-11-03T17:39:41.770Z,9.95
2022-11-03T17:42:28.744Z,9.94
2022-11-03T17:45:03.396Z,9.83
2022-11-03T17:47:40.274Z,9.91
2022-11-03T17:50:13.679Z,8.84
2022-11-03T17:52:40.972Z,9.70
2022-11-03T17:55:23.619Z,9.81
2022-11-03T17:58:13.178Z,9.76
2022-11-03T18:00:46.811Z,9.77
2022-11-03T18:03:20.143Z,9.78
2022-11-03T18:05:48.660Z,9.58
2022-11-03T18:08:24.797Z,9.14
2022-11-03T18:10:56.410Z,9.88
2022-11-03T18:13:36.582Z,9.59
2022-11-03T18:16:05.794Z,9.59
2022-11-03T18:18:46.784Z,10.00
2022-11-03T18:21:23.829Z,9.54
2022-11-03T18:23:53.808Z,8.88
2022-11-03T18:26:25.992Z,9.19
2022-11-03T18:28:54.190Z,9.95
2022-11-03T18:31:35.266Z,10.00
2022-11-03T18:34:12.086Z,10.02
2022-11-03T18:36:43.593Z,9.64
2022-11-03T18:39:16.941Z,9.92
2022-11-03T18:41:46.700Z,9.03
2022-11-03T18:44:32.880Z,9.78
2022-11-03T18:47:02.721Z,8.94
2022-11-03T18:49:33.130Z,9.80
2022-11-03T18:52:22.004Z,9.20
2022-11-03T18:54:57.474Z,9.33
2022-11-03T18:57:29.429Z,9.71
2022-11-03T18:59:59.448Z,9.51
2022-11-03T19:02:28.282Z,9.81
2022-11-03T19:04:55.148Z,9.85
2022-11-03T19:07:30.881Z,9.02
2022-11-03T19:10:24.453Z,9.75
2022-11-03T19:13:00.091Z,9.50
2022-11-03T19:15:28.764Z,9.72
2022-11-03T19:18:18.496Z,9.75
2022-11-03T19:20:45.436Z,8.92
2022-11-03T19:23:12.454Z,9.78
2022-11-03T19:25:43.398Z,9.74
2022-11-03T19:28:18.551Z,8.28
2022-11-03T19:30:54.078Z,9.60
2022-11-03T19:33:27.614Z,9.58
2022-11-03T19:36:06.314Z,9.84
2022-11-03T19:38:36.483Z,9.63
2022-11-03T19:41:34.162Z,9.87
2022-11-03T19:44:14.449Z,9.57
2022-11-03T19:46:43.649Z,9.74
2022-11-03T19:49:14.099Z,8.44
2022-11-03T19:51:43.792Z,9.58
2022-11-03T19:54:16.872Z,9.67
2022-11-03T19:56:44.049Z,9.62
2022-11-03T19:59:15.185Z,9.02
2022-11-03T20:01:44.766Z,8.11
2022-11-03T20:04:12.612Z,9.73
2022-11-03T20:06:41.055Z,9.80
2022-11-03T20:09:12.179Z,9.74
2022-11-03T20:11:40.905Z,9.35
2022-11-03T20:14:15.071Z,9.00
2022-11-03T20:16:42.967Z,9.14
2022-11-03T20:19:09.582Z,9.45
2022-11-03T20:21:36.212Z,9.65
2022-11-03T20:24:05.953Z,8.42
2022-11-03T20:26:34.073Z,9.91
2022-11-03T20:29:01.858Z,9.95
2022-11-03T20:31:30.872Z,9.92
2022-11-03T20:34:04.926Z,9.90
2022-11-03T20:36:35.176Z,9.34
2022-11-03T20:39:02.005Z,9.19
2022-11-03T20:41:34.305Z,9.79
2022-11-03T20:44:00.986Z,9.99
2022-11-03T20:46:34.703Z,9.88
2022-11-03T20:49:03.527Z,9.87
2022-11-03T20:51:40.978Z,9.90
2022-11-03T20:54:15.814Z,9.94
2022-11-03T20:56:45.424Z,9.68
2022-11-03T21:01:44.581Z,8.95
2022-11-03T21:04:14.912Z,9.46
2022-11-03T21:06:41.881Z,9.79
2022-11-03T21:09:13.048Z,8.30
2022-11-03T21:11:40.710Z,9.91
2022-11-03T21:14:18.858Z,9.48
2022-11-03T21:17:04.224Z,9.07
2022-11-03T21:19:51.087Z,9.75
2022-11-03T21:25:15.918Z,9.61
2022-11-03T21:27:43.185Z,9.49
2022-11-03T21:30:15.133Z,8.84
2022-11-03T21:32:41.947Z,9.48
2022-11-03T21:35:21.021Z,9.45
2022-11-03T21:37:48.019Z,9.00
2022-11-03T21:40:14.834Z,9.21
2022-11-03T21:43:00.112Z,7.64
2022-11-03T21:45:26.893Z,8.32
2022-11-03T21:48:13.949Z,8.19
2022-11-03T21:50:42.310Z,9.11
2022-11-03T21:53:09.373Z,9.06
2022-11-03T21:55:36.318Z,8.30
2022-11-03T21:58:03.868Z,8.98
2022-11-03T22:00:31.166Z,8.97
2022-11-03T22:02:59.533Z,9.15
2022-11-03T22:05:26.670Z,9.19
2022-11-03T22:07:53.624Z,8.22
2022-11-03T22:10:20.671Z,8.97
2022-11-03T22:12:47.420Z,8.91
2022-11-03T22:15:32.650Z,9.43
2022-11-03T22:18:04.105Z,9.43
2022-11-03T22:21:08.086Z,9.09
2022-11-03T22:23:54.317Z,9.55
2022-11-03T22:29:40.293Z,9.30
2022-11-03T22:32:15.539Z,9.66
2022-11-03T22:35:01.531Z,8.39
2022-11-03T22:40:13.546Z,8.96
2022-11-03T22:42:58.961Z,9.27
2022-11-03T22:45:44.188Z,9.18
2022-11-03T22:48:12.642Z,9.16
2022-11-03T22:50:40.060Z,9.31
2022-11-03T22:53:35.975Z,9.27
2022-11-03T22:56:02.801Z,9.26
2022-11-03T22:58:30.629Z,9.16
2022-11-03T23:00:57.648Z,9.11
2022-11-03T23:03:24.362Z,8.87
2022-11-03T23:05:51.045Z,8.44
2022-11-03T23:08:17.733Z,8.95
2022-11-03T23:10:44.511Z,8.21
2022-11-03T23:13:11.400Z,8.68
2022-11-03T23:15:43.552Z,8.85
2022-11-03T23:18:28.975Z,8.59
2022-11-03T23:21:08.238Z,8.73
2022-11-03T23:23:55.456Z,8.54
2022-11-03T23:26:23.687Z,7.11
2022-11-03T23:28:50.669Z,8.97
2022-11-03T23:31:17.685Z,9.02
2022-11-03T23:33:44.735Z,9.12
2022-11-03T23:36:14.112Z,8.56
2022-11-03T23:38:42.116Z,9.24
2022-11-03T23:41:15.564Z,9.20
2022-11-03T23:43:43.686Z,8.89
2022-11-03T23:46:34.631Z,8.37
2022-11-03T23:49:01.631Z,9.19
2022-11-03T23:51:30.010Z,9.37
2022-11-03T23:53:58.061Z,9.36
2022-11-03T23:56:45.852Z,9.19
2022-11-03T23:59:14.221Z,8.75
